Terminal Aerodrome Forecast
Issued by NWS

Home | Current Version | Previous Version | Text Only | Print | Product List | Glossary On
Versions: 1 2 3 4 5 6 7 8 9 10 11 12 13 14 15 16 17 18 19 20 21
000
FTUS44 KMAF 231100
TAFINK
TAF
KINK 231120Z 2312/2412 15011KT P6SM SCT130 BKN250
     FM231800 21012G19KT P6SM BKN250
     FM232100 24018G24KT P6SM SCT250
     FM240200 26011KT P6SM SKC=

USA.gov is the U.S. government's official web portal to all federal, state and local government web resources and services.